sensor_id;sensor_type;location;lat;lon;timestamp;temperature;humidity
17591;DHT22;8914;50.070;8.226;2023-11-21T00:02:17;10.80;99.90
17591;DHT22;8914;50.070;8.226;2023-11-21T00:04:47;10.80;99.90
17591;DHT22;8914;50.070;8.226;2023-11-21T00:07:17;11.10;99.90
17591;DHT22;8914;50.070;8.226;2023-11-21T00:09:48;10.70;99.90
17591;DHT22;8914;50.070;8.226;2023-11-21T00:12:20;10.70;99.90
17591;DHT22;8914;50.070;8.226;2023-11-21T00:14:51;10.70;99.90
17591;DHT22;8914;50.070;8.226;2023-11-21T00:17:23;10.80;99.90
17591;DHT22;8914;50.070;8.226;2023-11-21T00:19:53;10.80;99.90
17591;DHT22;8914;50.070;8.226;2023-11-21T00:22:23;10.70;99.90
17591;DHT22;8914;50.070;8.226;2023-11-21T00:24:53;10.70;99.90
17591;DHT22;8914;50.070;8.226;2023-11-21T00:27:25;11.10;99.90
17591;DHT22;8914;50.070;8.226;2023-11-21T00:29:52;10.70;99.90
17591;DHT22;8914;50.070;8.226;2023-11-21T00:32:22;10.70;99.90
17591;DHT22;8914;50.070;8.226;2023-11-21T00:34:52;10.70;99.90
17591;DHT22;8914;50.070;8.226;2023-11-21T00:37:21;10.70;99.90
17591;DHT22;8914;50.070;8.226;2023-11-21T00:39:51;10.70;99.90
17591;DHT22;8914;50.070;8.226;2023-11-21T00:42:21;10.60;99.90
17591;DHT22;8914;50.070;8.226;2023-11-21T00:44:53;10.70;99.90
17591;DHT22;8914;50.070;8.226;2023-11-21T00:47:23;10.60;99.90
17591;DHT22;8914;50.070;8.226;2023-11-21T00:49:53;10.70;99.90
17591;DHT22;8914;50.070;8.226;2023-11-21T00:52:23;10.70;99.90
17591;DHT22;8914;50.070;8.226;2023-11-21T00:54:53;10.70;99.90
17591;DHT22;8914;50.070;8.226;2023-11-21T00:57:23;10.60;99.90
17591;DHT22;8914;50.070;8.226;2023-11-21T00:59:55;10.60;99.90
17591;DHT22;8914;50.070;8.226;2023-11-21T01:02:25;10.60;99.90
17591;DHT22;8914;50.070;8.226;2023-11-21T01:04:55;10.60;99.90
17591;DHT22;8914;50.070;8.226;2023-11-21T01:07:25;10.60;99.90
17591;DHT22;8914;50.070;8.226;2023-11-21T01:09:55;10.60;99.90
17591;DHT22;8914;50.070;8.226;2023-11-21T01:12:25;10.50;99.90
17591;DHT22;8914;50.070;8.226;2023-11-21T01:14:57;10.50;99.90
17591;DHT22;8914;50.070;8.226;2023-11-21T01:17:27;10.50;99.90
17591;DHT22;8914;50.070;8.226;2023-11-21T01:19:57;10.50;99.90
17591;DHT22;8914;50.070;8.226;2023-11-21T01:22:27;10.50;99.90
17591;DHT22;8914;50.070;8.226;2023-11-21T01:24:56;10.50;99.90
17591;DHT22;8914;50.070;8.226;2023-11-21T01:27:26;10.50;99.90
17591;DHT22;8914;50.070;8.226;2023-11-21T01:29:58;10.40;99.90
17591;DHT22;8914;50.070;8.226;2023-11-21T01:32:28;10.50;99.90
17591;DHT22;8914;50.070;8.226;2023-11-21T01:34:59;10.50;99.90
17591;DHT22;8914;50.070;8.226;2023-11-21T01:37:29;10.50;99.90
17591;DHT22;8914;50.070;8.226;2023-11-21T01:39:59;10.50;99.90
17591;DHT22;8914;50.070;8.226;2023-11-21T01:42:32;10.50;99.90
17591;DHT22;8914;50.070;8.226;2023-11-21T01:45:04;10.40;99.90
17591;DHT22;8914;50.070;8.226;2023-11-21T01:47:34;10.40;99.90
17591;DHT22;8914;50.070;8.226;2023-11-21T01:50:05;10.30;99.90
17591;DHT22;8914;50.070;8.226;2023-11-21T01:52:35;10.30;99.90
17591;DHT22;8914;50.070;8.226;2023-11-21T01:55:06;10.20;99.90
17591;DHT22;8914;50.070;8.226;2023-11-21T01:57:37;10.10;99.90
17591;DHT22;8914;50.070;8.226;2023-11-21T08:41:29;10.20;99.90
17591;DHT22;8914;50.070;8.226;2023-11-21T08:43:59;10.30;99.90
17591;DHT22;8914;50.070;8.226;2023-11-21T08:46:29;10.20;99.90
17591;DHT22;8914;50.070;8.226;2023-11-21T08:48:58;10.20;99.90
17591;DHT22;8914;50.070;8.226;2023-11-21T08:51:28;10.20;99.90
17591;DHT22;8914;50.070;8.226;2023-11-21T08:53:58;10.90;99.90
17591;DHT22;8914;50.070;8.226;2023-11-21T08:56:34;10.30;99.90
17591;DHT22;8914;50.070;8.226;2023-11-21T08:59:03;10.30;99.90
17591;DHT22;8914;50.070;8.226;2023-11-21T09:01:34;10.40;99.90
17591;DHT22;8914;50.070;8.226;2023-11-21T09:04:04;10.40;99.90
17591;DHT22;8914;50.070;8.226;2023-11-21T09:06:35;10.50;99.90
17591;DHT22;8914;50.070;8.226;2023-11-21T09:09:04;10.50;99.90
17591;DHT22;8914;50.070;8.226;2023-11-21T09:11:37;10.50;99.90
17591;DHT22;8914;50.070;8.226;2023-11-21T09:14:07;10.50;99.90
17591;DHT22;8914;50.070;8.226;2023-11-21T09:16:39;10.50;99.90
17591;DHT22;8914;50.070;8.226;2023-11-21T09:19:09;10.50;99.90
17591;DHT22;8914;50.070;8.226;2023-11-21T09:21:41;10.40;99.90
17591;DHT22;8914;50.070;8.226;2023-11-21T09:24:10;10.50;99.90
17591;DHT22;8914;50.070;8.226;2023-11-21T09:26:43;10.50;99.90
17591;DHT22;8914;50.070;8.226;2023-11-21T09:29:13;10.50;99.90
17591;DHT22;8914;50.070;8.226;2023-11-21T09:31:42;10.60;99.90
17591;DHT22;8914;50.070;8.226;2023-11-21T09:34:12;10.60;99.90
17591;DHT22;8914;50.070;8.226;2023-11-21T09:36:44;10.60;99.90
17591;DHT22;8914;50.070;8.226;2023-11-21T09:39:13;10.60;99.90
17591;DHT22;8914;50.070;8.226;2023-11-21T09:41:49;10.70;99.90
17591;DHT22;8914;50.070;8.226;2023-11-21T09:44:22;10.70;99.90
17591;DHT22;8914;50.070;8.226;2023-11-21T09:46:56;10.80;99.90
17591;DHT22;8914;50.070;8.226;2023-11-21T09:49:28;10.70;99.90
17591;DHT22;8914;50.070;8.226;2023-11-21T09:52:01;10.80;99.90
17591;DHT22;8914;50.070;8.226;2023-11-21T09:54:32;11.00;99.90
17591;DHT22;8914;50.070;8.226;2023-11-21T09:57:05;10.90;99.90
17591;DHT22;8914;50.070;8.226;2023-11-21T09:59:36;10.90;99.90
17591;DHT22;8914;50.070;8.226;2023-11-21T10:02:05;11.00;99.90
17591;DHT22;8914;50.070;8.226;2023-11-21T10:04:39;11.00;99.90
17591;DHT22;8914;50.070;8.226;2023-11-21T10:07:09;11.00;99.90
17591;DHT22;8914;50.070;8.226;2023-11-21T10:09:39;11.10;99.90
17591;DHT22;8914;50.070;8.226;2023-11-21T10:12:11;11.20;99.90
17591;DHT22;8914;50.070;8.226;2023-11-21T10:14:42;11.20;99.90
17591;DHT22;8914;50.070;8.226;2023-11-21T10:17:12;11.30;99.90
17591;DHT22;8914;50.070;8.226;2023-11-21T10:19:39;11.60;99.90
17591;DHT22;8914;50.070;8.226;2023-11-21T10:22:09;11.50;99.90
17591;DHT22;8914;50.070;8.226;2023-11-21T10:24:38;11.50;99.90
17591;DHT22;8914;50.070;8.226;2023-11-21T10:27:22;11.50;99.90
17591;DHT22;8914;50.070;8.226;2023-11-21T10:29:51;11.60;99.90
17591;DHT22;8914;50.070;8.226;2023-11-21T10:32:21;11.70;99.90
17591;DHT22;8914;50.070;8.226;2023-11-21T10:34:56;11.60;99.90
17591;DHT22;8914;50.070;8.226;2023-11-21T10:37:27;11.60;99.90
17591;DHT22;8914;50.070;8.226;2023-11-21T10:39:57;11.60;99.90
17591;DHT22;8914;50.070;8.226;2023-11-21T10:42:29;11.60;99.90
17591;DHT22;8914;50.070;8.226;2023-11-21T10:45:01;11.60;99.90
17591;DHT22;8914;50.070;8.226;2023-11-21T10:47:38;11.80;99.90
17591;DHT22;8914;50.070;8.226;2023-11-21T10:50:08;10.70;99.90
17591;DHT22;8914;50.070;8.226;2023-11-21T10:52:39;12.00;99.90
17591;DHT22;8914;50.070;8.226;2023-11-21T10:55:16;11.60;99.90
17591;DHT22;8914;50.070;8.226;2023-11-21T10:57:52;11.60;99.90
17591;DHT22;8914;50.070;8.226;2023-11-21T11:00:22;11.60;99.90
17591;DHT22;8914;50.070;8.226;2023-11-21T11:02:54;11.70;99.90
17591;DHT22;8914;50.070;8.226;2023-11-21T11:05:26;11.70;99.90
17591;DHT22;8914;50.070;8.226;2023-11-21T11:08:00;11.80;99.90
17591;DHT22;8914;50.070;8.226;2023-11-21T11:10:31;11.90;99.90
17591;DHT22;8914;50.070;8.226;2023-11-21T11:13:04;11.90;99.90
17591;DHT22;8914;50.070;8.226;2023-11-21T11:15:33;11.90;99.90
17591;DHT22;8914;50.070;8.226;2023-11-21T11:18:04;12.00;99.90
17591;DHT22;8914;50.070;8.226;2023-11-21T11:20:36;11.90;99.90
17591;DHT22;8914;50.070;8.226;2023-11-21T11:23:13;12.20;99.90
17591;DHT22;8914;50.070;8.226;2023-11-21T11:25:51;12.20;99.90
17591;DHT22;8914;50.070;8.226;2023-11-21T11:28:26;12.10;99.90
17591;DHT22;8914;50.070;8.226;2023-11-21T11:31:02;12.10;99.90
17591;DHT22;8914;50.070;8.226;2023-11-21T11:33:36;12.10;99.90
17591;DHT22;8914;50.070;8.226;2023-11-21T11:36:10;12.20;99.90
17591;DHT22;8914;50.070;8.226;2023-11-21T11:38:45;12.20;99.90
17591;DHT22;8914;50.070;8.226;2023-11-21T11:41:24;12.30;99.90
17591;DHT22;8914;50.070;8.226;2023-11-21T11:43:59;12.40;99.90
17591;DHT22;8914;50.070;8.226;2023-11-21T11:46:42;12.40;99.90
17591;DHT22;8914;50.070;8.226;2023-11-21T11:49:23;12.40;99.90
17591;DHT22;8914;50.070;8.226;2023-11-21T11:54:38;12.40;99.90
17591;DHT22;8914;50.070;8.226;2023-11-21T11:57:08;12.50;99.90
17591;DHT22;8914;50.070;8.226;2023-11-21T12:02:25;12.40;99.90
17591;DHT22;8914;50.070;8.226;2023-11-21T12:04:55;12.40;99.90
17591;DHT22;8914;50.070;8.226;2023-11-21T12:07:26;12.40;99.90
17591;DHT22;8914;50.070;8.226;2023-11-21T12:10:09;12.40;99.90
17591;DHT22;8914;50.070;8.226;2023-11-21T12:12:42;12.30;99.90
17591;DHT22;8914;50.070;8.226;2023-11-21T12:15:13;12.20;99.90
17591;DHT22;8914;50.070;8.226;2023-11-21T12:17:45;12.10;99.90
17591;DHT22;8914;50.070;8.226;2023-11-21T12:20:17;12.10;99.90
17591;DHT22;8914;50.070;8.226;2023-11-21T12:22:48;12.10;99.90
17591;DHT22;8914;50.070;8.226;2023-11-21T12:25:19;12.10;99.90
17591;DHT22;8914;50.070;8.226;2023-11-21T12:27:50;12.10;99.90
17591;DHT22;8914;50.070;8.226;2023-11-21T12:30:21;12.20;99.90
17591;DHT22;8914;50.070;8.226;2023-11-21T12:32:55;13.70;99.90
17591;DHT22;8914;50.070;8.226;2023-11-21T12:35:25;13.10;99.90
17591;DHT22;8914;50.070;8.226;2023-11-21T12:37:57;12.20;99.90
17591;DHT22;8914;50.070;8.226;2023-11-21T12:40:26;12.20;99.90
17591;DHT22;8914;50.070;8.226;2023-11-21T12:42:57;12.20;99.90
17591;DHT22;8914;50.070;8.226;2023-11-21T12:45:29;12.20;99.90
17591;DHT22;8914;50.070;8.226;2023-11-21T12:48:01;12.20;99.90
17591;DHT22;8914;50.070;8.226;2023-11-21T12:50:35;12.20;99.90
17591;DHT22;8914;50.070;8.226;2023-11-21T12:53:06;12.20;99.90
17591;DHT22;8914;50.070;8.226;2023-11-21T12:55:37;12.20;99.90
17591;DHT22;8914;50.070;8.226;2023-11-21T12:58:09;12.20;99.90
17591;DHT22;8914;50.070;8.226;2023-11-21T13:00:40;12.20;99.90
17591;DHT22;8914;50.070;8.226;2023-11-21T13:03:13;12.20;99.90
17591;DHT22;8914;50.070;8.226;2023-11-21T13:05:50;12.10;99.90
17591;DHT22;8914;50.070;8.226;2023-11-21T13:08:22;12.50;99.90
17591;DHT22;8914;50.070;8.226;2023-11-21T13:10:53;12.10;99.90
17591;DHT22;8914;50.070;8.226;2023-11-21T13:13:24;12.10;99.90
17591;DHT22;8914;50.070;8.226;2023-11-21T13:15:55;12.00;99.90
17591;DHT22;8914;50.070;8.226;2023-11-21T13:18:30;12.00;99.90
17591;DHT22;8914;50.070;8.226;2023-11-21T13:21:01;12.10;99.90
17591;DHT22;8914;50.070;8.226;2023-11-21T13:23:39;13.50;99.90
17591;DHT22;8914;50.070;8.226;2023-11-21T13:26:19;12.10;99.90
17591;DHT22;8914;50.070;8.226;2023-11-21T13:28:52;12.00;99.90
17591;DHT22;8914;50.070;8.226;2023-11-21T13:31:26;12.00;99.90
17591;DHT22;8914;50.070;8.226;2023-11-21T13:34:02;13.20;99.90
17591;DHT22;8914;50.070;8.226;2023-11-21T13:36:35;11.90;99.90
17591;DHT22;8914;50.070;8.226;2023-11-21T13:39:05;12.00;99.90
17591;DHT22;8914;50.070;8.226;2023-11-21T13:41:42;11.90;99.90
17591;DHT22;8914;50.070;8.226;2023-11-21T13:44:15;12.00;99.90
17591;DHT22;8914;50.070;8.226;2023-11-21T13:46:54;12.00;99.90
17591;DHT22;8914;50.070;8.226;2023-11-21T13:49:28;12.10;99.90
17591;DHT22;8914;50.070;8.226;2023-11-21T13:52:02;12.10;99.90
17591;DHT22;8914;50.070;8.226;2023-11-21T13:54:34;12.10;99.90
17591;DHT22;8914;50.070;8.226;2023-11-21T13:57:04;12.10;99.90
17591;DHT22;8914;50.070;8.226;2023-11-21T13:59:33;12.00;99.90
17591;DHT22;8914;50.070;8.226;2023-11-21T14:02:03;13.10;99.90
17591;DHT22;8914;50.070;8.226;2023-11-21T14:04:47;12.00;99.90
17591;DHT22;8914;50.070;8.226;2023-11-21T14:07:22;12.00;99.90
17591;DHT22;8914;50.070;8.226;2023-11-21T14:10:00;12.00;99.90
17591;DHT22;8914;50.070;8.226;2023-11-21T14:12:30;12.10;99.90
17591;DHT22;8914;50.070;8.226;2023-11-21T14:15:05;12.10;99.90
17591;DHT22;8914;50.070;8.226;2023-11-21T14:17:37;12.10;99.90
17591;DHT22;8914;50.070;8.226;2023-11-21T14:20:11;12.00;99.90
17591;DHT22;8914;50.070;8.226;2023-11-21T14:22:44;12.00;99.90
17591;DHT22;8914;50.070;8.226;2023-11-21T14:25:14;11.90;99.90
17591;DHT22;8914;50.070;8.226;2023-11-21T14:27:44;11.80;99.90
17591;DHT22;8914;50.070;8.226;2023-11-21T14:30:14;11.80;99.90
17591;DHT22;8914;50.070;8.226;2023-11-21T14:32:46;11.80;99.90
17591;DHT22;8914;50.070;8.226;2023-11-21T14:35:18;11.70;99.90
17591;DHT22;8914;50.070;8.226;2023-11-21T14:37:48;11.90;99.90
17591;DHT22;8914;50.070;8.226;2023-11-21T14:40:18;11.60;99.90
17591;DHT22;8914;50.070;8.226;2023-11-21T14:42:51;11.60;99.90
17591;DHT22;8914;50.070;8.226;2023-11-21T14:45:24;11.60;99.90
17591;DHT22;8914;50.070;8.226;2023-11-21T14:47:53;10.80;99.90
17591;DHT22;8914;50.070;8.226;2023-11-21T14:50:35;12.00;99.90
17591;DHT22;8914;50.070;8.226;2023-11-21T14:53:18;11.70;99.90
17591;DHT22;8914;50.070;8.226;2023-11-21T14:56:06;11.50;99.90
17591;DHT22;8914;50.070;8.226;2023-11-21T14:58:36;11.50;99.90
17591;DHT22;8914;50.070;8.226;2023-11-21T15:01:05;10.00;99.90
17591;DHT22;8914;50.070;8.226;2023-11-21T15:03:37;11.50;99.90
17591;DHT22;8914;50.070;8.226;2023-11-21T15:06:19;11.50;99.90
17591;DHT22;8914;50.070;8.226;2023-11-21T15:08:54;11.50;99.90
17591;DHT22;8914;50.070;8.226;2023-11-21T15:11:36;11.50;99.90
17591;DHT22;8914;50.070;8.226;2023-11-21T15:14:06;11.50;99.90
17591;DHT22;8914;50.070;8.226;2023-11-21T15:16:36;11.40;99.90
17591;DHT22;8914;50.070;8.226;2023-11-21T15:19:09;11.40;99.90
17591;DHT22;8914;50.070;8.226;2023-11-21T15:21:47;11.40;99.90
17591;DHT22;8914;50.070;8.226;2023-11-21T15:24:17;11.30;99.90
17591;DHT22;8914;50.070;8.226;2023-11-21T15:26:46;11.30;99.90
17591;DHT22;8914;50.070;8.226;2023-11-21T15:29:16;11.30;99.90
17591;DHT22;8914;50.070;8.226;2023-11-21T15:31:48;11.20;99.90
17591;DHT22;8914;50.070;8.226;2023-11-21T15:34:22;11.20;99.90
17591;DHT22;8914;50.070;8.226;2023-11-21T15:36:56;11.30;99.90
17591;DHT22;8914;50.070;8.226;2023-11-21T15:39:25;11.20;99.90
17591;DHT22;8914;50.070;8.226;2023-11-21T15:41:57;11.20;99.90
17591;DHT22;8914;50.070;8.226;2023-11-21T15:44:27;11.20;99.90
17591;DHT22;8914;50.070;8.226;2023-11-21T15:47:00;11.10;99.90
17591;DHT22;8914;50.070;8.226;2023-11-21T15:49:31;11.20;99.90
17591;DHT22;8914;50.070;8.226;2023-11-21T15:52:05;11.20;99.90
17591;DHT22;8914;50.070;8.226;2023-11-21T15:54:37;11.20;99.90
17591;DHT22;8914;50.070;8.226;2023-11-21T15:57:07;11.20;99.90
17591;DHT22;8914;50.070;8.226;2023-11-21T15:59:39;11.20;99.90
17591;DHT22;8914;50.070;8.226;2023-11-21T16:02:10;11.20;99.90
17591;DHT22;8914;50.070;8.226;2023-11-21T16:04:42;11.20;99.90
17591;DHT22;8914;50.070;8.226;2023-11-21T16:07:14;11.20;99.90
17591;DHT22;8914;50.070;8.226;2023-11-21T16:09:44;11.10;99.90
17591;DHT22;8914;50.070;8.226;2023-11-21T16:12:14;11.10;99.90
17591;DHT22;8914;50.070;8.226;2023-11-21T16:14:47;11.10;99.90
17591;DHT22;8914;50.070;8.226;2023-11-21T16:17:16;11.00;99.90
17591;DHT22;8914;50.070;8.226;2023-11-21T16:19:48;11.00;99.90
17591;DHT22;8914;50.070;8.226;2023-11-21T16:22:21;11.00;99.90
17591;DHT22;8914;50.070;8.226;2023-11-21T16:24:52;11.00;99.90
17591;DHT22;8914;50.070;8.226;2023-11-21T16:27:22;11.00;99.90
17591;DHT22;8914;50.070;8.226;2023-11-21T16:29:52;11.00;99.90
17591;DHT22;8914;50.070;8.226;2023-11-21T16:32:22;11.00;99.90
17591;DHT22;8914;50.070;8.226;2023-11-21T16:34:52;11.00;99.90
17591;DHT22;8914;50.070;8.226;2023-11-21T16:37:26;10.90;99.90
17591;DHT22;8914;50.070;8.226;2023-11-21T16:39:56;10.90;99.90
17591;DHT22;8914;50.070;8.226;2023-11-21T16:42:26;10.80;99.90
17591;DHT22;8914;50.070;8.226;2023-11-21T16:44:57;10.90;99.90
17591;DHT22;8914;50.070;8.226;2023-11-21T16:47:27;10.80;99.90
17591;DHT22;8914;50.070;8.226;2023-11-21T16:49:59;10.90;99.90
17591;DHT22;8914;50.070;8.226;2023-11-21T16:52:32;10.90;99.90
17591;DHT22;8914;50.070;8.226;2023-11-21T16:55:03;10.90;99.90
17591;DHT22;8914;50.070;8.226;2023-11-21T16:57:35;10.90;99.90
17591;DHT22;8914;50.070;8.226;2023-11-21T17:00:07;10.90;99.90
17591;DHT22;8914;50.070;8.226;2023-11-21T17:02:38;11.00;99.90
17591;DHT22;8914;50.070;8.226;2023-11-21T17:05:09;11.00;99.90
17591;DHT22;8914;50.070;8.226;2023-11-21T17:07:42;10.90;99.90
17591;DHT22;8914;50.070;8.226;2023-11-21T17:10:13;11.00;99.90
17591;DHT22;8914;50.070;8.226;2023-11-21T17:12:47;11.00;99.90
17591;DHT22;8914;50.070;8.226;2023-11-21T17:15:22;11.00;99.90
17591;DHT22;8914;50.070;8.226;2023-11-21T17:17:52;10.90;99.90
17591;DHT22;8914;50.070;8.226;2023-11-21T17:20:25;10.90;99.90
17591;DHT22;8914;50.070;8.226;2023-11-21T17:22:58;10.90;99.90
17591;DHT22;8914;50.070;8.226;2023-11-21T17:25:29;10.90;99.90
17591;DHT22;8914;50.070;8.226;2023-11-21T17:27:59;10.80;99.90
17591;DHT22;8914;50.070;8.226;2023-11-21T17:30:29;10.80;99.90
17591;DHT22;8914;50.070;8.226;2023-11-21T17:32:59;10.80;99.90
17591;DHT22;8914;50.070;8.226;2023-11-21T17:35:29;10.80;99.90
17591;DHT22;8914;50.070;8.226;2023-11-21T17:38:01;10.80;99.90
17591;DHT22;8914;50.070;8.226;2023-11-21T17:40:32;10.80;99.90
17591;DHT22;8914;50.070;8.226;2023-11-21T17:43:02;10.90;99.90
17591;DHT22;8914;50.070;8.226;2023-11-21T17:45:32;10.80;99.90
17591;DHT22;8914;50.070;8.226;2023-11-21T17:48:02;10.80;99.90
17591;DHT22;8914;50.070;8.226;2023-11-21T17:50:34;11.00;99.90
17591;DHT22;8914;50.070;8.226;2023-11-21T17:53:06;10.80;99.90
17591;DHT22;8914;50.070;8.226;2023-11-21T17:55:36;10.90;99.90
17591;DHT22;8914;50.070;8.226;2023-11-21T17:58:06;10.80;99.90
17591;DHT22;8914;50.070;8.226;2023-11-21T18:00:36;10.80;99.90
17591;DHT22;8914;50.070;8.226;2023-11-21T18:03:05;10.80;99.90
17591;DHT22;8914;50.070;8.226;2023-11-21T18:05:36;10.80;99.90
17591;DHT22;8914;50.070;8.226;2023-11-21T18:08:09;10.80;99.90
17591;DHT22;8914;50.070;8.226;2023-11-21T18:10:40;10.80;99.90
17591;DHT22;8914;50.070;8.226;2023-11-21T18:13:10;10.80;99.90
17591;DHT22;8914;50.070;8.226;2023-11-21T18:15:40;11.00;99.90
17591;DHT22;8914;50.070;8.226;2023-11-21T18:18:10;10.70;99.90
17591;DHT22;8914;50.070;8.226;2023-11-21T18:20:39;10.70;99.90
17591;DHT22;8914;50.070;8.226;2023-11-21T18:23:13;10.80;99.90
17591;DHT22;8914;50.070;8.226;2023-11-21T18:25:43;10.90;99.90
17591;DHT22;8914;50.070;8.226;2023-11-21T18:28:13;10.80;99.90
17591;DHT22;8914;50.070;8.226;2023-11-21T18:30:44;10.80;99.90
17591;DHT22;8914;50.070;8.226;2023-11-21T18:33:15;10.80;99.90
17591;DHT22;8914;50.070;8.226;2023-11-21T18:35:46;10.90;99.90
17591;DHT22;8914;50.070;8.226;2023-11-21T18:38:19;10.90;99.90
17591;DHT22;8914;50.070;8.226;2023-11-21T18:40:50;11.00;99.90
17591;DHT22;8914;50.070;8.226;2023-11-21T18:43:20;10.90;99.90
17591;DHT22;8914;50.070;8.226;2023-11-21T18:45:50;11.00;99.90
17591;DHT22;8914;50.070;8.226;2023-11-21T18:48:21;11.00;99.90
17591;DHT22;8914;50.070;8.226;2023-11-21T18:50:55;10.90;99.90
17591;DHT22;8914;50.070;8.226;2023-11-21T18:53:27;11.00;99.90
17591;DHT22;8914;50.070;8.226;2023-11-21T18:56:00;11.00;99.90
17591;DHT22;8914;50.070;8.226;2023-11-21T18:58:30;11.00;99.90
17591;DHT22;8914;50.070;8.226;2023-11-21T19:01:00;11.00;99.90
17591;DHT22;8914;50.070;8.226;2023-11-21T19:03:29;10.90;99.90
17591;DHT22;8914;50.070;8.226;2023-11-21T19:05:59;10.90;99.90
17591;DHT22;8914;50.070;8.226;2023-11-21T19:08:31;10.90;99.90
17591;DHT22;8914;50.070;8.226;2023-11-21T19:11:01;10.90;99.90
17591;DHT22;8914;50.070;8.226;2023-11-21T19:13:31;10.90;99.90
17591;DHT22;8914;50.070;8.226;2023-11-21T19:16:05;10.90;99.90
17591;DHT22;8914;50.070;8.226;2023-11-21T19:18:35;10.90;99.90
17591;DHT22;8914;50.070;8.226;2023-11-21T19:21:05;10.90;99.90
17591;DHT22;8914;50.070;8.226;2023-11-21T19:23:37;10.90;99.90
17591;DHT22;8914;50.070;8.226;2023-11-21T19:26:07;10.90;99.90
17591;DHT22;8914;50.070;8.226;2023-11-21T19:28:36;10.90;99.90
17591;DHT22;8914;50.070;8.226;2023-11-21T19:31:06;10.90;99.90
17591;DHT22;8914;50.070;8.226;2023-11-21T19:33:35;10.80;99.90
17591;DHT22;8914;50.070;8.226;2023-11-21T19:36:05;10.70;99.90
17591;DHT22;8914;50.070;8.226;2023-11-21T19:38:38;10.50;99.90
17591;DHT22;8914;50.070;8.226;2023-11-21T19:41:12;10.20;99.90
17591;DHT22;8914;50.070;8.226;2023-11-21T19:43:43;10.10;99.90
17591;DHT22;8914;50.070;8.226;2023-11-21T19:46:14;9.80;99.90
17591;DHT22;8914;50.070;8.226;2023-11-21T19:48:43;9.60;99.90
17591;DHT22;8914;50.070;8.226;2023-11-21T19:51:19;9.40;99.90
17591;DHT22;8914;50.070;8.226;2023-11-21T19:53:51;9.30;99.90
17591;DHT22;8914;50.070;8.226;2023-11-21T19:56:21;9.20;99.90
17591;DHT22;8914;50.070;8.226;2023-11-21T19:58:51;10.40;99.90
17591;DHT22;8914;50.070;8.226;2023-11-21T20:01:21;9.20;99.90
17591;DHT22;8914;50.070;8.226;2023-11-21T20:03:52;9.10;99.90
17591;DHT22;8914;50.070;8.226;2023-11-21T20:06:22;9.00;99.90
17591;DHT22;8914;50.070;8.226;2023-11-21T20:08:54;9.00;99.90
17591;DHT22;8914;50.070;8.226;2023-11-21T20:11:26;9.00;99.90
17591;DHT22;8914;50.070;8.226;2023-11-21T20:13:58;9.00;99.90
17591;DHT22;8914;50.070;8.226;2023-11-21T20:16:29;9.00;99.90
17591;DHT22;8914;50.070;8.226;2023-11-21T20:18:59;8.90;99.90
17591;DHT22;8914;50.070;8.226;2023-11-21T20:21:29;8.90;99.90
17591;DHT22;8914;50.070;8.226;2023-11-21T20:24:03;8.90;99.90
17591;DHT22;8914;50.070;8.226;2023-11-21T20:26:32;9.80;99.90
17591;DHT22;8914;50.070;8.226;2023-11-21T20:29:04;8.20;99.90
17591;DHT22;8914;50.070;8.226;2023-11-21T20:31:33;8.80;99.90
17591;DHT22;8914;50.070;8.226;2023-11-21T20:34:03;8.80;99.90
17591;DHT22;8914;50.070;8.226;2023-11-21T20:36:33;8.80;99.90
17591;DHT22;8914;50.070;8.226;2023-11-21T20:39:06;8.70;99.90
17591;DHT22;8914;50.070;8.226;2023-11-21T20:41:39;8.60;99.90
17591;DHT22;8914;50.070;8.226;2023-11-21T20:44:10;8.40;99.90
17591;DHT22;8914;50.070;8.226;2023-11-21T20:46:40;8.70;99.90
17591;DHT22;8914;50.070;8.226;2023-11-21T20:49:11;8.70;99.90
17591;DHT22;8914;50.070;8.226;2023-11-21T20:51:40;8.70;99.90
17591;DHT22;8914;50.070;8.226;2023-11-21T20:54:14;8.60;99.90
17591;DHT22;8914;50.070;8.226;2023-11-21T20:56:44;8.60;99.90
17591;DHT22;8914;50.070;8.226;2023-11-21T20:59:15;8.60;99.90
17591;DHT22;8914;50.070;8.226;2023-11-21T21:01:45;8.50;99.90
17591;DHT22;8914;50.070;8.226;2023-11-21T21:04:15;8.40;99.90
17591;DHT22;8914;50.070;8.226;2023-11-21T21:06:46;8.20;99.90
17591;DHT22;8914;50.070;8.226;2023-11-21T21:09:19;8.20;99.90
17591;DHT22;8914;50.070;8.226;2023-11-21T21:11:48;8.20;99.90
17591;DHT22;8914;50.070;8.226;2023-11-21T21:14:18;8.00;99.90
17591;DHT22;8914;50.070;8.226;2023-11-21T21:16:50;8.00;99.90
17591;DHT22;8914;50.070;8.226;2023-11-21T21:19:20;8.00;99.90
17591;DHT22;8914;50.070;8.226;2023-11-21T21:21:54;8.10;99.90
17591;DHT22;8914;50.070;8.226;2023-11-21T21:24:26;8.10;99.90
17591;DHT22;8914;50.070;8.226;2023-11-21T21:26:56;8.10;99.90
17591;DHT22;8914;50.070;8.226;2023-11-21T21:29:26;7.80;99.90
17591;DHT22;8914;50.070;8.226;2023-11-21T21:31:55;8.00;99.90
17591;DHT22;8914;50.070;8.226;2023-11-21T21:34:25;7.90;99.90
17591;DHT22;8914;50.070;8.226;2023-11-21T21:36:55;8.10;99.90
17591;DHT22;8914;50.070;8.226;2023-11-21T21:39:29;7.90;99.90
17591;DHT22;8914;50.070;8.226;2023-11-21T21:41:58;7.90;99.90
17591;DHT22;8914;50.070;8.226;2023-11-21T21:44:28;8.00;99.90
17591;DHT22;8914;50.070;8.226;2023-11-21T21:47:00;7.90;99.90
17591;DHT22;8914;50.070;8.226;2023-11-21T21:49:30;7.80;99.90
17591;DHT22;8914;50.070;8.226;2023-11-21T21:51:59;7.80;99.90
17591;DHT22;8914;50.070;8.226;2023-11-21T21:54:32;7.80;99.90
17591;DHT22;8914;50.070;8.226;2023-11-21T21:57:01;7.90;99.90
17591;DHT22;8914;50.070;8.226;2023-11-21T21:59:32;7.90;99.90
17591;DHT22;8914;50.070;8.226;2023-11-21T22:02:05;7.90;99.90
17591;DHT22;8914;50.070;8.226;2023-11-21T22:04:35;7.70;99.90
17591;DHT22;8914;50.070;8.226;2023-11-21T22:07:06;7.70;99.90
17591;DHT22;8914;50.070;8.226;2023-11-21T22:09:39;7.70;99.90
17591;DHT22;8914;50.070;8.226;2023-11-21T22:12:08;7.70;99.90
17591;DHT22;8914;50.070;8.226;2023-11-21T22:14:38;7.60;99.90
17591;DHT22;8914;50.070;8.226;2023-11-21T22:17:08;7.60;99.90
17591;DHT22;8914;50.070;8.226;2023-11-21T22:19:41;7.60;99.90
17591;DHT22;8914;50.070;8.226;2023-11-21T22:22:11;7.70;99.90
17591;DHT22;8914;50.070;8.226;2023-11-21T22:24:44;7.50;99.90
17591;DHT22;8914;50.070;8.226;2023-11-21T22:27:13;7.30;99.90
17591;DHT22;8914;50.070;8.226;2023-11-21T22:29:43;7.50;99.90
17591;DHT22;8914;50.070;8.226;2023-11-21T22:32:13;7.60;99.90
17591;DHT22;8914;50.070;8.226;2023-11-21T22:34:43;8.60;99.90
17591;DHT22;8914;50.070;8.226;2023-11-21T22:37:13;7.60;99.90
17591;DHT22;8914;50.070;8.226;2023-11-21T22:39:45;7.70;99.90
17591;DHT22;8914;50.070;8.226;2023-11-21T22:42:17;7.80;99.90
17591;DHT22;8914;50.070;8.226;2023-11-21T22:44:53;7.50;99.90
17591;DHT22;8914;50.070;8.226;2023-11-21T22:47:23;7.40;99.90
17591;DHT22;8914;50.070;8.226;2023-11-21T22:49:53;7.50;99.90
17591;DHT22;8914;50.070;8.226;2023-11-21T22:52:23;7.50;99.90
17591;DHT22;8914;50.070;8.226;2023-11-21T22:54:55;7.40;99.90
17591;DHT22;8914;50.070;8.226;2023-11-21T22:57:26;7.40;99.90
17591;DHT22;8914;50.070;8.226;2023-11-21T22:59:55;7.80;99.90
17591;DHT22;8914;50.070;8.226;2023-11-21T23:02:25;8.50;99.90
17591;DHT22;8914;50.070;8.226;2023-11-21T23:04:55;7.20;99.90